sensor_id;sensor_type;location;lat;lon;timestamp;P1;durP1;ratioP1;P2;durP2;ratioP2
35056;SDS011;21241;51.828;19.574;2023-09-08T00:00:31;13.90;;;13.00;;
35056;SDS011;21241;51.828;19.574;2023-09-08T00:03:19;13.60;;;12.70;;
35056;SDS011;21241;51.828;19.574;2023-09-08T00:05:49;13.80;;;12.80;;
35056;SDS011;21241;51.828;19.574;2023-09-08T00:08:17;12.50;;;11.50;;
35056;SDS011;21241;51.828;19.574;2023-09-08T00:10:45;13.30;;;12.40;;
35056;SDS011;21241;51.828;19.574;2023-09-08T00:13:13;14.90;;;13.80;;
35056;SDS011;21241;51.828;19.574;2023-09-08T00:15:41;14.40;;;13.40;;
35056;SDS011;21241;51.828;19.574;2023-09-08T00:18:08;14.60;;;13.30;;
35056;SDS011;21241;51.828;19.574;2023-09-08T00:20:36;14.80;;;13.70;;
35056;SDS011;21241;51.828;19.574;2023-09-08T00:23:04;14.30;;;13.20;;
35056;SDS011;21241;51.828;19.574;2023-09-08T00:25:31;14.80;;;13.60;;
35056;SDS011;21241;51.828;19.574;2023-09-08T00:27:59;14.20;;;13.20;;
35056;SDS011;21241;51.828;19.574;2023-09-08T00:30:27;15.10;;;14.00;;
35056;SDS011;21241;51.828;19.574;2023-09-08T00:32:55;15.00;;;13.80;;
35056;SDS011;21241;51.828;19.574;2023-09-08T00:35:24;14.90;;;13.90;;
35056;SDS011;21241;51.828;19.574;2023-09-08T00:37:52;14.30;;;13.20;;
35056;SDS011;21241;51.828;19.574;2023-09-08T00:40:20;15.20;;;14.00;;
35056;SDS011;21241;51.828;19.574;2023-09-08T00:42:48;14.30;;;13.30;;
35056;SDS011;21241;51.828;19.574;2023-09-08T00:45:15;15.20;;;14.10;;
35056;SDS011;21241;51.828;19.574;2023-09-08T00:47:43;14.70;;;13.60;;
35056;SDS011;21241;51.828;19.574;2023-09-08T00:50:11;15.40;;;14.30;;
35056;SDS011;21241;51.828;19.574;2023-09-08T00:52:39;15.30;;;14.20;;
35056;SDS011;21241;51.828;19.574;2023-09-08T00:55:07;15.00;;;14.00;;
35056;SDS011;21241;51.828;19.574;2023-09-08T00:57:35;14.20;;;13.10;;
35056;SDS011;21241;51.828;19.574;2023-09-08T01:00:03;14.20;;;13.20;;
35056;SDS011;21241;51.828;19.574;2023-09-08T01:02:34;15.20;;;14.00;;
35056;SDS011;21241;51.828;19.574;2023-09-08T01:05:02;14.30;;;13.30;;
35056;SDS011;21241;51.828;19.574;2023-09-08T01:07:31;14.10;;;13.10;;
35056;SDS011;21241;51.828;19.574;2023-09-08T01:09:59;14.70;;;13.60;;
35056;SDS011;21241;51.828;19.574;2023-09-08T01:12:32;14.70;;;13.50;;
35056;SDS011;21241;51.828;19.574;2023-09-08T01:15:02;13.80;;;12.80;;
35056;SDS011;21241;51.828;19.574;2023-09-08T01:17:30;13.80;;;12.80;;
35056;SDS011;21241;51.828;19.574;2023-09-08T01:20:00;13.80;;;12.80;;
35056;SDS011;21241;51.828;19.574;2023-09-08T01:22:30;13.30;;;12.50;;
35056;SDS011;21241;51.828;19.574;2023-09-08T01:27:34;13.90;;;12.90;;
35056;SDS011;21241;51.828;19.574;2023-09-08T01:30:03;14.90;;;13.90;;
35056;SDS011;21241;51.828;19.574;2023-09-08T01:32:32;14.50;;;13.40;;
35056;SDS011;21241;51.828;19.574;2023-09-08T01:35:00;13.80;;;12.70;;
35056;SDS011;21241;51.828;19.574;2023-09-08T01:37:28;14.40;;;13.40;;
35056;SDS011;21241;51.828;19.574;2023-09-08T01:39:56;13.00;;;12.10;;
35056;SDS011;21241;51.828;19.574;2023-09-08T01:42:23;14.00;;;13.00;;
35056;SDS011;21241;51.828;19.574;2023-09-08T01:44:51;14.30;;;13.40;;
35056;SDS011;21241;51.828;19.574;2023-09-08T01:47:19;14.80;;;13.70;;
35056;SDS011;21241;51.828;19.574;2023-09-08T01:49:47;14.80;;;13.70;;
35056;SDS011;21241;51.828;19.574;2023-09-08T01:52:15;14.40;;;13.30;;
35056;SDS011;21241;51.828;19.574;2023-09-08T01:54:43;15.50;;;14.40;;
35056;SDS011;21241;51.828;19.574;2023-09-08T01:57:11;15.90;;;14.90;;
35056;SDS011;21241;51.828;19.574;2023-09-08T01:59:39;16.00;;;14.90;;
35056;SDS011;21241;51.828;19.574;2023-09-08T02:02:07;15.20;;;14.20;;
35056;SDS011;21241;51.828;19.574;2023-09-08T02:04:35;17.60;;;16.40;;
35056;SDS011;21241;51.828;19.574;2023-09-08T02:07:02;16.40;;;15.30;;
35056;SDS011;21241;51.828;19.574;2023-09-08T02:09:32;17.80;;;16.50;;
35056;SDS011;21241;51.828;19.574;2023-09-08T02:12:00;17.90;;;16.70;;
35056;SDS011;21241;51.828;19.574;2023-09-08T02:14:29;17.90;;;16.60;;
35056;SDS011;21241;51.828;19.574;2023-09-08T02:16:57;17.20;;;16.00;;
35056;SDS011;21241;51.828;19.574;2023-09-08T02:19:25;17.60;;;16.40;;
35056;SDS011;21241;51.828;19.574;2023-09-08T02:21:53;17.10;;;15.90;;
35056;SDS011;21241;51.828;19.574;2023-09-08T02:24:21;16.40;;;15.30;;
35056;SDS011;21241;51.828;19.574;2023-09-08T02:26:49;16.40;;;15.20;;
35056;SDS011;21241;51.828;19.574;2023-09-08T02:29:17;18.60;;;17.30;;
35056;SDS011;21241;51.828;19.574;2023-09-08T02:31:46;18.20;;;16.90;;
35056;SDS011;21241;51.828;19.574;2023-09-08T02:34:14;18.30;;;17.00;;
35056;SDS011;21241;51.828;19.574;2023-09-08T02:36:42;18.60;;;17.30;;
35056;SDS011;21241;51.828;19.574;2023-09-08T02:39:10;17.00;;;15.90;;
35056;SDS011;21241;51.828;19.574;2023-09-08T02:41:39;17.60;;;16.30;;
35056;SDS011;21241;51.828;19.574;2023-09-08T02:44:07;20.10;;;18.70;;
35056;SDS011;21241;51.828;19.574;2023-09-08T02:46:34;19.70;;;18.30;;
35056;SDS011;21241;51.828;19.574;2023-09-08T02:49:02;18.80;;;17.40;;
35056;SDS011;21241;51.828;19.574;2023-09-08T02:51:31;18.40;;;17.00;;
35056;SDS011;21241;51.828;19.574;2023-09-08T02:53:59;19.70;;;18.30;;
35056;SDS011;21241;51.828;19.574;2023-09-08T02:56:27;21.40;;;19.90;;
35056;SDS011;21241;51.828;19.574;2023-09-08T02:58:55;21.40;;;19.80;;
35056;SDS011;21241;51.828;19.574;2023-09-08T03:01:22;22.20;;;20.60;;
35056;SDS011;21241;51.828;19.574;2023-09-08T03:03:50;21.50;;;20.10;;
35056;SDS011;21241;51.828;19.574;2023-09-08T03:06:20;21.70;;;20.20;;
35056;SDS011;21241;51.828;19.574;2023-09-08T03:08:48;24.30;;;22.70;;
35056;SDS011;21241;51.828;19.574;2023-09-08T03:11:16;23.70;;;22.00;;
35056;SDS011;21241;51.828;19.574;2023-09-08T03:13:44;23.80;;;22.10;;
35056;SDS011;21241;51.828;19.574;2023-09-08T03:16:12;24.30;;;22.40;;
35056;SDS011;21241;51.828;19.574;2023-09-08T03:18:39;22.80;;;21.20;;
35056;SDS011;21241;51.828;19.574;2023-09-08T03:21:07;23.90;;;22.30;;
35056;SDS011;21241;51.828;19.574;2023-09-08T03:23:39;22.50;;;20.90;;
35056;SDS011;21241;51.828;19.574;2023-09-08T03:26:07;22.70;;;21.00;;
35056;SDS011;21241;51.828;19.574;2023-09-08T03:28:35;20.90;;;19.40;;
35056;SDS011;21241;51.828;19.574;2023-09-08T03:31:04;22.10;;;20.40;;
35056;SDS011;21241;51.828;19.574;2023-09-08T03:33:33;21.30;;;19.80;;
35056;SDS011;21241;51.828;19.574;2023-09-08T03:36:02;21.40;;;19.90;;
35056;SDS011;21241;51.828;19.574;2023-09-08T03:38:30;23.00;;;21.40;;
35056;SDS011;21241;51.828;19.574;2023-09-08T03:40:58;21.10;;;19.60;;
35056;SDS011;21241;51.828;19.574;2023-09-08T03:43:26;21.80;;;20.20;;
35056;SDS011;21241;51.828;19.574;2023-09-08T03:45:53;22.30;;;20.70;;
35056;SDS011;21241;51.828;19.574;2023-09-08T03:48:22;21.20;;;19.70;;
35056;SDS011;21241;51.828;19.574;2023-09-08T03:50:49;18.50;;;17.30;;
35056;SDS011;21241;51.828;19.574;2023-09-08T03:53:17;20.40;;;19.00;;
35056;SDS011;21241;51.828;19.574;2023-09-08T03:55:45;21.40;;;19.80;;
35056;SDS011;21241;51.828;19.574;2023-09-08T03:58:14;22.00;;;20.40;;
35056;SDS011;21241;51.828;19.574;2023-09-08T04:00:43;20.50;;;19.10;;
35056;SDS011;21241;51.828;19.574;2023-09-08T04:03:11;20.20;;;18.80;;
35056;SDS011;21241;51.828;19.574;2023-09-08T04:05:39;20.80;;;19.30;;
35056;SDS011;21241;51.828;19.574;2023-09-08T04:08:07;21.60;;;20.00;;
35056;SDS011;21241;51.828;19.574;2023-09-08T04:10:35;21.30;;;19.70;;
35056;SDS011;21241;51.828;19.574;2023-09-08T04:13:03;21.00;;;19.40;;
35056;SDS011;21241;51.828;19.574;2023-09-08T04:15:31;20.80;;;19.30;;
35056;SDS011;21241;51.828;19.574;2023-09-08T04:17:59;22.00;;;20.50;;
35056;SDS011;21241;51.828;19.574;2023-09-08T04:20:26;21.60;;;19.90;;
35056;SDS011;21241;51.828;19.574;2023-09-08T04:22:54;21.20;;;19.60;;
35056;SDS011;21241;51.828;19.574;2023-09-08T04:25:22;21.10;;;19.60;;
35056;SDS011;21241;51.828;19.574;2023-09-08T04:27:50;21.60;;;19.90;;
35056;SDS011;21241;51.828;19.574;2023-09-08T04:30:18;20.80;;;19.40;;
35056;SDS011;21241;51.828;19.574;2023-09-08T04:32:46;21.60;;;20.00;;
35056;SDS011;21241;51.828;19.574;2023-09-08T04:35:14;21.10;;;19.70;;
35056;SDS011;21241;51.828;19.574;2023-09-08T04:37:42;22.30;;;20.60;;
35056;SDS011;21241;51.828;19.574;2023-09-08T04:40:10;22.10;;;20.40;;
35056;SDS011;21241;51.828;19.574;2023-09-08T04:42:37;22.60;;;20.70;;
35056;SDS011;21241;51.828;19.574;2023-09-08T04:45:06;22.00;;;20.50;;
35056;SDS011;21241;51.828;19.574;2023-09-08T04:47:35;22.20;;;20.70;;
35056;SDS011;21241;51.828;19.574;2023-09-08T04:50:04;25.20;;;23.50;;
35056;SDS011;21241;51.828;19.574;2023-09-08T04:52:32;24.00;;;22.20;;
35056;SDS011;21241;51.828;19.574;2023-09-08T04:55:01;24.40;;;22.70;;
35056;SDS011;21241;51.828;19.574;2023-09-08T04:57:30;26.00;;;24.10;;
35056;SDS011;21241;51.828;19.574;2023-09-08T04:59:59;24.40;;;22.60;;
35056;SDS011;21241;51.828;19.574;2023-09-08T05:02:28;24.50;;;22.60;;
35056;SDS011;21241;51.828;19.574;2023-09-08T05:04:56;23.20;;;21.50;;
35056;SDS011;21241;51.828;19.574;2023-09-08T05:07:24;23.30;;;21.60;;
35056;SDS011;21241;51.828;19.574;2023-09-08T05:09:52;21.70;;;20.10;;
35056;SDS011;21241;51.828;19.574;2023-09-08T05:12:25;20.40;;;18.80;;
35056;SDS011;21241;51.828;19.574;2023-09-08T05:14:53;21.40;;;19.80;;
35056;SDS011;21241;51.828;19.574;2023-09-08T05:17:25;21.50;;;19.90;;
35056;SDS011;21241;51.828;19.574;2023-09-08T05:19:52;22.40;;;20.70;;
35056;SDS011;21241;51.828;19.574;2023-09-08T05:22:21;23.50;;;21.70;;
35056;SDS011;21241;51.828;19.574;2023-09-08T05:24:50;22.20;;;20.40;;
35056;SDS011;21241;51.828;19.574;2023-09-08T05:27:17;23.20;;;21.30;;
35056;SDS011;21241;51.828;19.574;2023-09-08T05:29:46;20.10;;;18.50;;
35056;SDS011;21241;51.828;19.574;2023-09-08T05:32:13;18.10;;;16.90;;
35056;SDS011;21241;51.828;19.574;2023-09-08T05:34:41;18.00;;;16.70;;
35056;SDS011;21241;51.828;19.574;2023-09-08T05:37:09;21.50;;;19.10;;
35056;SDS011;21241;51.828;19.574;2023-09-08T05:39:37;19.10;;;17.00;;
35056;SDS011;21241;51.828;19.574;2023-09-08T05:42:05;14.20;;;13.10;;
35056;SDS011;21241;51.828;19.574;2023-09-08T05:44:34;14.70;;;13.60;;
35056;SDS011;21241;51.828;19.574;2023-09-08T05:47:02;13.70;;;12.60;;
35056;SDS011;21241;51.828;19.574;2023-09-08T05:49:30;13.80;;;12.60;;
35056;SDS011;21241;51.828;19.574;2023-09-08T05:52:01;13.00;;;11.90;;
35056;SDS011;21241;51.828;19.574;2023-09-08T05:54:30;12.80;;;11.70;;
35056;SDS011;21241;51.828;19.574;2023-09-08T05:56:59;13.10;;;12.00;;
35056;SDS011;21241;51.828;19.574;2023-09-08T05:59:27;13.70;;;12.60;;
35056;SDS011;21241;51.828;19.574;2023-09-08T06:01:55;11.60;;;10.90;;
35056;SDS011;21241;51.828;19.574;2023-09-08T06:04:23;11.00;;;10.20;;
35056;SDS011;21241;51.828;19.574;2023-09-08T06:06:51;10.30;;;9.40;;
35056;SDS011;21241;51.828;19.574;2023-09-08T06:09:20;10.90;;;9.80;;
35056;SDS011;21241;51.828;19.574;2023-09-08T06:11:48;10.10;;;9.30;;
35056;SDS011;21241;51.828;19.574;2023-09-08T06:14:16;9.70;;;8.90;;
35056;SDS011;21241;51.828;19.574;2023-09-08T06:16:46;10.50;;;9.00;;
35056;SDS011;21241;51.828;19.574;2023-09-08T06:19:14;9.80;;;8.90;;
35056;SDS011;21241;51.828;19.574;2023-09-08T06:21:42;9.60;;;8.80;;
35056;SDS011;21241;51.828;19.574;2023-09-08T06:24:10;10.90;;;9.20;;
35056;SDS011;21241;51.828;19.574;2023-09-08T06:26:38;9.60;;;8.80;;
35056;SDS011;21241;51.828;19.574;2023-09-08T06:29:06;9.20;;;8.50;;
35056;SDS011;21241;51.828;19.574;2023-09-08T06:31:34;9.20;;;8.30;;
35056;SDS011;21241;51.828;19.574;2023-09-08T06:34:02;13.00;;;8.80;;
35056;SDS011;21241;51.828;19.574;2023-09-08T06:36:31;9.40;;;8.80;;
35056;SDS011;21241;51.828;19.574;2023-09-08T06:38:59;9.40;;;8.70;;
35056;SDS011;21241;51.828;19.574;2023-09-08T06:41:27;8.60;;;7.90;;
35056;SDS011;21241;51.828;19.574;2023-09-08T06:43:57;8.20;;;7.60;;
35056;SDS011;21241;51.828;19.574;2023-09-08T06:46:27;9.10;;;8.30;;
35056;SDS011;21241;51.828;19.574;2023-09-08T06:48:55;8.10;;;7.50;;
35056;SDS011;21241;51.828;19.574;2023-09-08T06:51:24;9.60;;;7.80;;
35056;SDS011;21241;51.828;19.574;2023-09-08T06:53:55;8.90;;;8.30;;
35056;SDS011;21241;51.828;19.574;2023-09-08T06:56:25;7.80;;;7.30;;
35056;SDS011;21241;51.828;19.574;2023-09-08T06:58:53;8.10;;;7.50;;
35056;SDS011;21241;51.828;19.574;2023-09-08T07:01:21;8.40;;;7.70;;
35056;SDS011;21241;51.828;19.574;2023-09-08T07:03:49;7.90;;;7.20;;
35056;SDS011;21241;51.828;19.574;2023-09-08T07:06:17;7.30;;;6.80;;
35056;SDS011;21241;51.828;19.574;2023-09-08T07:08:45;7.30;;;6.70;;
35056;SDS011;21241;51.828;19.574;2023-09-08T07:11:13;7.90;;;7.30;;
35056;SDS011;21241;51.828;19.574;2023-09-08T07:13:44;7.80;;;7.20;;
35056;SDS011;21241;51.828;19.574;2023-09-08T07:16:12;7.30;;;6.80;;
35056;SDS011;21241;51.828;19.574;2023-09-08T07:18:41;7.20;;;6.60;;
35056;SDS011;21241;51.828;19.574;2023-09-08T07:21:09;7.20;;;6.60;;
35056;SDS011;21241;51.828;19.574;2023-09-08T07:23:36;7.50;;;6.80;;
35056;SDS011;21241;51.828;19.574;2023-09-08T07:26:05;6.90;;;6.30;;
35056;SDS011;21241;51.828;19.574;2023-09-08T07:28:33;6.90;;;6.40;;
35056;SDS011;21241;51.828;19.574;2023-09-08T07:31:04;7.20;;;6.50;;
35056;SDS011;21241;51.828;19.574;2023-09-08T07:33:33;6.80;;;6.30;;
35056;SDS011;21241;51.828;19.574;2023-09-08T07:36:04;7.10;;;6.50;;
35056;SDS011;21241;51.828;19.574;2023-09-08T07:38:33;6.50;;;6.00;;
35056;SDS011;21241;51.828;19.574;2023-09-08T07:41:02;6.90;;;6.40;;
35056;SDS011;21241;51.828;19.574;2023-09-08T07:43:30;7.00;;;6.40;;
35056;SDS011;21241;51.828;19.574;2023-09-08T07:45:58;6.60;;;6.00;;
35056;SDS011;21241;51.828;19.574;2023-09-08T07:48:26;6.90;;;6.20;;
35056;SDS011;21241;51.828;19.574;2023-09-08T07:50:53;8.30;;;7.10;;
35056;SDS011;21241;51.828;19.574;2023-09-08T07:53:21;7.90;;;7.10;;
35056;SDS011;21241;51.828;19.574;2023-09-08T07:55:49;6.90;;;6.40;;
35056;SDS011;21241;51.828;19.574;2023-09-08T07:58:16;7.00;;;6.50;;
35056;SDS011;21241;51.828;19.574;2023-09-08T08:00:47;7.20;;;6.60;;
35056;SDS011;21241;51.828;19.574;2023-09-08T08:03:15;6.50;;;6.10;;
35056;SDS011;21241;51.828;19.574;2023-09-08T08:05:43;6.60;;;6.20;;
35056;SDS011;21241;51.828;19.574;2023-09-08T08:08:11;6.70;;;6.10;;
35056;SDS011;21241;51.828;19.574;2023-09-08T08:10:40;7.10;;;6.40;;
35056;SDS011;21241;51.828;19.574;2023-09-08T08:13:08;6.00;;;5.60;;
35056;SDS011;21241;51.828;19.574;2023-09-08T08:15:37;6.50;;;6.00;;
35056;SDS011;21241;51.828;19.574;2023-09-08T08:18:05;6.70;;;6.10;;
35056;SDS011;21241;51.828;19.574;2023-09-08T08:20:33;6.30;;;5.70;;
35056;SDS011;21241;51.828;19.574;2023-09-08T08:23:04;7.20;;;6.60;;
35056;SDS011;21241;51.828;19.574;2023-09-08T08:25:32;6.90;;;6.30;;
35056;SDS011;21241;51.828;19.574;2023-09-08T08:28:00;6.10;;;5.70;;
35056;SDS011;21241;51.828;19.574;2023-09-08T08:30:29;6.10;;;5.60;;
35056;SDS011;21241;51.828;19.574;2023-09-08T08:32:56;5.90;;;5.50;;
35056;SDS011;21241;51.828;19.574;2023-09-08T08:35:24;5.10;;;4.80;;
35056;SDS011;21241;51.828;19.574;2023-09-08T08:37:52;5.50;;;5.10;;
35056;SDS011;21241;51.828;19.574;2023-09-08T08:40:20;5.80;;;5.30;;
35056;SDS011;21241;51.828;19.574;2023-09-08T08:42:47;5.30;;;4.90;;
35056;SDS011;21241;51.828;19.574;2023-09-08T08:45:15;5.00;;;4.60;;
35056;SDS011;21241;51.828;19.574;2023-09-08T08:47:47;5.30;;;4.90;;
35056;SDS011;21241;51.828;19.574;2023-09-08T08:50:15;5.70;;;5.20;;
35056;SDS011;21241;51.828;19.574;2023-09-08T08:52:45;6.00;;;5.30;;
35056;SDS011;21241;51.828;19.574;2023-09-08T08:55:13;5.20;;;4.80;;
35056;SDS011;21241;51.828;19.574;2023-09-08T08:57:43;5.70;;;5.20;;
35056;SDS011;21241;51.828;19.574;2023-09-08T09:00:11;5.20;;;4.80;;
35056;SDS011;21241;51.828;19.574;2023-09-08T09:02:41;5.80;;;5.30;;
35056;SDS011;21241;51.828;19.574;2023-09-08T09:05:11;5.30;;;4.90;;
35056;SDS011;21241;51.828;19.574;2023-09-08T09:07:40;5.00;;;4.60;;
35056;SDS011;21241;51.828;19.574;2023-09-08T09:10:09;5.00;;;4.70;;
35056;SDS011;21241;51.828;19.574;2023-09-08T09:12:37;4.60;;;4.30;;
35056;SDS011;21241;51.828;19.574;2023-09-08T09:15:05;4.70;;;4.30;;
35056;SDS011;21241;51.828;19.574;2023-09-08T09:17:33;4.90;;;4.40;;
35056;SDS011;21241;51.828;19.574;2023-09-08T09:20:18;4.60;;;4.30;;
35056;SDS011;21241;51.828;19.574;2023-09-08T09:22:48;4.80;;;4.50;;
35056;SDS011;21241;51.828;19.574;2023-09-08T09:25:24;4.80;;;4.40;;
35056;SDS011;21241;51.828;19.574;2023-09-08T09:27:54;4.80;;;4.40;;
35056;SDS011;21241;51.828;19.574;2023-09-08T09:30:22;4.80;;;4.50;;
35056;SDS011;21241;51.828;19.574;2023-09-08T09:33:03;4.70;;;4.30;;
35056;SDS011;21241;51.828;19.574;2023-09-08T09:35:44;5.20;;;4.70;;
35056;SDS011;21241;51.828;19.574;2023-09-08T09:38:12;4.90;;;4.60;;
35056;SDS011;21241;51.828;19.574;2023-09-08T09:40:40;5.60;;;5.10;;
35056;SDS011;21241;51.828;19.574;2023-09-08T09:43:08;5.10;;;4.70;;
35056;SDS011;21241;51.828;19.574;2023-09-08T09:45:37;5.50;;;5.10;;
35056;SDS011;21241;51.828;19.574;2023-09-08T09:48:06;4.70;;;4.40;;
35056;SDS011;21241;51.828;19.574;2023-09-08T09:50:35;5.00;;;4.60;;
35056;SDS011;21241;51.828;19.574;2023-09-08T09:53:13;5.60;;;5.00;;
35056;SDS011;21241;51.828;19.574;2023-09-08T09:55:43;5.50;;;5.10;;
35056;SDS011;21241;51.828;19.574;2023-09-08T09:58:11;5.40;;;5.00;;
35056;SDS011;21241;51.828;19.574;2023-09-08T10:00:39;5.80;;;5.20;;
35056;SDS011;21241;51.828;19.574;2023-09-08T10:03:13;5.70;;;5.30;;
35056;SDS011;21241;51.828;19.574;2023-09-08T10:05:42;5.70;;;5.20;;
35056;SDS011;21241;51.828;19.574;2023-09-08T10:08:10;5.90;;;5.40;;
35056;SDS011;21241;51.828;19.574;2023-09-08T10:10:37;5.90;;;5.40;;
35056;SDS011;21241;51.828;19.574;2023-09-08T10:13:06;7.20;;;6.50;;
35056;SDS011;21241;51.828;19.574;2023-09-08T10:15:34;5.10;;;4.80;;
35056;SDS011;21241;51.828;19.574;2023-09-08T10:18:04;5.50;;;5.00;;
35056;SDS011;21241;51.828;19.574;2023-09-08T10:20:33;9.40;;;5.20;;
35056;SDS011;21241;51.828;19.574;2023-09-08T10:23:12;7.70;;;5.70;;
35056;SDS011;21241;51.828;19.574;2023-09-08T10:25:45;6.00;;;5.40;;
35056;SDS011;21241;51.828;19.574;2023-09-08T10:28:17;5.50;;;5.10;;
35056;SDS011;21241;51.828;19.574;2023-09-08T10:30:45;5.40;;;5.00;;
35056;SDS011;21241;51.828;19.574;2023-09-08T10:33:13;7.80;;;5.80;;
35056;SDS011;21241;51.828;19.574;2023-09-08T10:35:42;9.40;;;6.60;;
35056;SDS011;21241;51.828;19.574;2023-09-08T10:40:52;6.40;;;5.70;;
35056;SDS011;21241;51.828;19.574;2023-09-08T10:43:19;5.40;;;5.00;;
35056;SDS011;21241;51.828;19.574;2023-09-08T10:45:47;5.70;;;5.30;;
35056;SDS011;21241;51.828;19.574;2023-09-08T10:48:15;5.60;;;5.20;;
35056;SDS011;21241;51.828;19.574;2023-09-08T10:50:43;6.00;;;5.40;;
35056;SDS011;21241;51.828;19.574;2023-09-08T10:53:17;5.50;;;5.00;;
35056;SDS011;21241;51.828;19.574;2023-09-08T10:55:47;6.20;;;5.60;;
35056;SDS011;21241;51.828;19.574;2023-09-08T10:58:30;6.30;;;5.80;;
35056;SDS011;21241;51.828;19.574;2023-09-08T11:01:00;6.40;;;5.80;;
35056;SDS011;21241;51.828;19.574;2023-09-08T11:06:06;5.30;;;4.90;;
35056;SDS011;21241;51.828;19.574;2023-09-08T11:08:34;5.90;;;5.40;;
35056;SDS011;21241;51.828;19.574;2023-09-08T11:11:03;5.80;;;5.30;;
35056;SDS011;21241;51.828;19.574;2023-09-08T11:13:30;5.50;;;5.10;;
35056;SDS011;21241;51.828;19.574;2023-09-08T11:15:58;5.60;;;5.00;;
35056;SDS011;21241;51.828;19.574;2023-09-08T11:18:30;6.10;;;5.40;;
35056;SDS011;21241;51.828;19.574;2023-09-08T11:20:58;5.80;;;5.40;;
35056;SDS011;21241;51.828;19.574;2023-09-08T11:23:26;5.60;;;5.20;;
35056;SDS011;21241;51.828;19.574;2023-09-08T11:25:53;5.40;;;5.00;;
35056;SDS011;21241;51.828;19.574;2023-09-08T11:28:21;7.10;;;6.40;;
35056;SDS011;21241;51.828;19.574;2023-09-08T11:30:50;5.40;;;5.00;;
35056;SDS011;21241;51.828;19.574;2023-09-08T11:33:19;5.30;;;5.00;;
35056;SDS011;21241;51.828;19.574;2023-09-08T11:35:47;5.80;;;5.30;;
35056;SDS011;21241;51.828;19.574;2023-09-08T11:38:15;5.30;;;4.90;;
35056;SDS011;21241;51.828;19.574;2023-09-08T11:40:42;5.80;;;5.30;;
35056;SDS011;21241;51.828;19.574;2023-09-08T11:43:11;5.70;;;5.30;;
35056;SDS011;21241;51.828;19.574;2023-09-08T11:45:39;6.00;;;5.50;;
35056;SDS011;21241;51.828;19.574;2023-09-08T11:48:10;6.00;;;5.50;;
35056;SDS011;21241;51.828;19.574;2023-09-08T11:50:38;5.20;;;4.80;;
35056;SDS011;21241;51.828;19.574;2023-09-08T11:53:11;5.50;;;5.00;;
35056;SDS011;21241;51.828;19.574;2023-09-08T11:55:39;5.50;;;5.10;;
35056;SDS011;21241;51.828;19.574;2023-09-08T11:58:07;5.70;;;5.00;;
35056;SDS011;21241;51.828;19.574;2023-09-08T12:00:35;5.80;;;5.40;;
35056;SDS011;21241;51.828;19.574;2023-09-08T12:03:11;5.90;;;5.40;;
35056;SDS011;21241;51.828;19.574;2023-09-08T12:05:39;6.60;;;6.20;;
35056;SDS011;21241;51.828;19.574;2023-09-08T12:08:08;5.80;;;5.20;;
35056;SDS011;21241;51.828;19.574;2023-09-08T12:10:39;5.60;;;5.20;;
35056;SDS011;21241;51.828;19.574;2023-09-08T12:13:08;5.70;;;5.20;;
35056;SDS011;21241;51.828;19.574;2023-09-08T12:15:37;5.80;;;5.40;;
35056;SDS011;21241;51.828;19.574;2023-09-08T12:18:09;5.90;;;5.40;;
35056;SDS011;21241;51.828;19.574;2023-09-08T12:20:38;5.50;;;5.00;;
35056;SDS011;21241;51.828;19.574;2023-09-08T12:23:16;5.30;;;5.00;;
35056;SDS011;21241;51.828;19.574;2023-09-08T12:25:45;5.70;;;5.20;;
35056;SDS011;21241;51.828;19.574;2023-09-08T12:28:13;5.40;;;5.00;;
35056;SDS011;21241;51.828;19.574;2023-09-08T12:30:41;5.20;;;4.80;;
35056;SDS011;21241;51.828;19.574;2023-09-08T12:33:10;5.40;;;5.00;;
35056;SDS011;21241;51.828;19.574;2023-09-08T12:35:38;5.30;;;4.90;;
35056;SDS011;21241;51.828;19.574;2023-09-08T12:38:06;5.50;;;5.20;;
35056;SDS011;21241;51.828;19.574;2023-09-08T12:40:35;5.40;;;5.00;;
35056;SDS011;21241;51.828;19.574;2023-09-08T12:43:04;5.80;;;5.40;;
35056;SDS011;21241;51.828;19.574;2023-09-08T12:45:48;5.60;;;5.10;;
35056;SDS011;21241;51.828;19.574;2023-09-08T12:48:16;5.90;;;5.30;;
35056;SDS011;21241;51.828;19.574;2023-09-08T12:50:43;5.80;;;5.40;;
35056;SDS011;21241;51.828;19.574;2023-09-08T12:53:11;5.20;;;4.80;;
35056;SDS011;21241;51.828;19.574;2023-09-08T12:55:39;6.00;;;5.50;;
35056;SDS011;21241;51.828;19.574;2023-09-08T12:58:07;5.80;;;5.30;;
35056;SDS011;21241;51.828;19.574;2023-09-08T13:00:35;5.80;;;5.40;;
35056;SDS011;21241;51.828;19.574;2023-09-08T13:03:03;5.10;;;4.70;;
35056;SDS011;21241;51.828;19.574;2023-09-08T13:05:31;5.50;;;5.10;;
35056;SDS011;21241;51.828;19.574;2023-09-08T13:08:01;6.10;;;5.50;;
35056;SDS011;21241;51.828;19.574;2023-09-08T13:10:29;5.40;;;4.90;;
35056;SDS011;21241;51.828;19.574;2023-09-08T13:12:57;6.10;;;5.60;;
35056;SDS011;21241;51.828;19.574;2023-09-08T13:15:25;6.00;;;5.50;;
35056;SDS011;21241;51.828;19.574;2023-09-08T13:17:53;5.60;;;5.20;;
35056;SDS011;21241;51.828;19.574;2023-09-08T13:20:21;5.40;;;5.10;;
35056;SDS011;21241;51.828;19.574;2023-09-08T13:22:48;5.70;;;5.30;;
35056;SDS011;21241;51.828;19.574;2023-09-08T13:25:16;5.40;;;5.00;;
35056;SDS011;21241;51.828;19.574;2023-09-08T13:27:44;5.40;;;5.10;;
35056;SDS011;21241;51.828;19.574;2023-09-08T13:30:12;5.50;;;5.10;;
35056;SDS011;21241;51.828;19.574;2023-09-08T13:32:41;7.20;;;5.30;;
35056;SDS011;21241;51.828;19.574;2023-09-08T13:35:09;6.40;;;5.90;;
35056;SDS011;21241;51.828;19.574;2023-09-08T13:37:37;5.70;;;5.20;;
35056;SDS011;21241;51.828;19.574;2023-09-08T13:40:08;5.80;;;5.30;;
35056;SDS011;21241;51.828;19.574;2023-09-08T13:42:36;6.00;;;5.50;;
35056;SDS011;21241;51.828;19.574;2023-09-08T13:45:04;5.60;;;5.10;;
35056;SDS011;21241;51.828;19.574;2023-09-08T13:47:32;5.80;;;5.30;;
35056;SDS011;21241;51.828;19.574;2023-09-08T13:50:01;5.50;;;5.10;;
35056;SDS011;21241;51.828;19.574;2023-09-08T13:52:33;6.00;;;5.50;;
35056;SDS011;21241;51.828;19.574;2023-09-08T13:55:06;6.10;;;5.70;;
35056;SDS011;21241;51.828;19.574;2023-09-08T13:57:37;5.70;;;5.30;;
35056;SDS011;21241;51.828;19.574;2023-09-08T14:00:08;5.80;;;5.40;;
35056;SDS011;21241;51.828;19.574;2023-09-08T14:02:43;5.70;;;5.30;;
35056;SDS011;21241;51.828;19.574;2023-09-08T14:05:18;6.10;;;5.60;;
35056;SDS011;21241;51.828;19.574;2023-09-08T14:07:54;6.30;;;5.70;;
35056;SDS011;21241;51.828;19.574;2023-09-08T14:10:34;6.10;;;5.60;;
35056;SDS011;21241;51.828;19.574;2023-09-08T14:13:08;5.90;;;5.40;;
35056;SDS011;21241;51.828;19.574;2023-09-08T14:15:36;6.00;;;5.60;;
35056;SDS011;21241;51.828;19.574;2023-09-08T14:18:04;5.80;;;5.40;;
35056;SDS011;21241;51.828;19.574;2023-09-08T14:20:33;8.10;;;5.90;;
35056;SDS011;21241;51.828;19.574;2023-09-08T14:23:00;6.20;;;5.80;;
35056;SDS011;21241;51.828;19.574;2023-09-08T14:25:28;5.90;;;5.40;;
35056;SDS011;21241;51.828;19.574;2023-09-08T14:27:56;7.20;;;6.20;;
35056;SDS011;21241;51.828;19.574;2023-09-08T14:30:27;5.80;;;5.30;;
35056;SDS011;21241;51.828;19.574;2023-09-08T14:32:55;5.80;;;5.40;;
35056;SDS011;21241;51.828;19.574;2023-09-08T14:35:23;5.90;;;5.40;;
35056;SDS011;21241;51.828;19.574;2023-09-08T14:37:51;6.40;;;5.60;;
35056;SDS011;21241;51.828;19.574;2023-09-08T14:40:18;6.50;;;5.70;;